createdAt,value
2022-12-27T00:01:36.069Z,2.30
2022-12-27T00:04:04.113Z,2.00
2022-12-27T00:06:32.252Z,1.70
2022-12-27T00:09:02.854Z,2.10
2022-12-27T00:11:30.993Z,1.70
2022-12-27T00:14:00.218Z,2.40
2022-12-27T00:16:28.083Z,1.57
2022-12-27T00:18:56.106Z,2.57
2022-12-27T00:21:24.570Z,2.03
2022-12-27T00:23:54.244Z,2.20
2022-12-27T00:26:25.351Z,1.90
2022-12-27T00:28:53.417Z,1.67
2022-12-27T00:31:22.252Z,1.93
2022-12-27T00:33:51.532Z,1.83
2022-12-27T00:36:22.704Z,2.17
2022-12-27T00:38:51.359Z,2.00
2022-12-27T00:41:19.905Z,2.13
2022-12-27T00:43:49.419Z,2.00
2022-12-27T00:46:17.803Z,2.53
2022-12-27T00:48:45.700Z,2.20
2022-12-27T00:51:15.470Z,2.07
2022-12-27T00:53:43.593Z,1.93
2022-12-27T00:56:13.548Z,2.33
2022-12-27T00:58:41.381Z,2.00
2022-12-27T01:01:12.290Z,1.90
2022-12-27T01:03:41.045Z,2.33
2022-12-27T01:06:10.273Z,2.20
2022-12-27T01:08:38.265Z,2.70
2022-12-27T01:11:07.295Z,2.13
2022-12-27T01:13:35.404Z,2.30
2022-12-27T01:16:03.441Z,2.10
2022-12-27T01:18:32.484Z,1.97
2022-12-27T01:21:00.190Z,1.93
2022-12-27T01:23:27.869Z,2.37
2022-12-27T01:26:00.960Z,2.63
2022-12-27T01:28:28.925Z,2.10
2022-12-27T01:30:56.671Z,2.30
2022-12-27T01:33:24.406Z,2.00
2022-12-27T01:35:53.450Z,2.50
2022-12-27T01:38:21.171Z,2.57
2022-12-27T01:40:48.954Z,2.20
2022-12-27T01:43:18.526Z,2.30
2022-12-27T01:45:48.092Z,1.97
2022-12-27T01:48:20.026Z,2.60
2022-12-27T01:50:50.474Z,2.07
2022-12-27T01:53:22.133Z,2.30
2022-12-27T01:55:54.390Z,2.20
2022-12-27T01:58:27.652Z,2.33
2022-12-27T02:00:55.780Z,1.67
2022-12-27T02:03:27.975Z,2.30
2022-12-27T02:05:56.498Z,2.10
2022-12-27T02:08:34.962Z,2.30
2022-12-27T02:11:04.863Z,2.23
2022-12-27T02:13:35.967Z,2.17
2022-12-27T02:16:10.530Z,2.70
2022-12-27T02:18:38.385Z,2.50
2022-12-27T02:21:29.762Z,2.60
2022-12-27T02:24:20.521Z,2.70
2022-12-27T02:26:55.334Z,2.20
2022-12-27T02:29:43.861Z,2.10
2022-12-27T02:32:17.970Z,2.40
2022-12-27T02:34:54.716Z,2.67
2022-12-27T02:37:26.082Z,2.80
2022-12-27T02:39:56.562Z,2.57
2022-12-27T02:42:42.009Z,2.43
2022-12-27T02:45:38.076Z,3.20
2022-12-27T02:48:28.599Z,2.77
2022-12-27T02:51:26.991Z,2.30
2022-12-27T02:54:09.416Z,2.30
2022-12-27T02:57:05.275Z,2.80
2022-12-27T03:00:07.773Z,2.23
2022-12-27T03:03:07.210Z,2.57
2022-12-27T03:05:47.198Z,2.30
2022-12-27T03:08:23.323Z,2.20
2022-12-27T03:11:16.874Z,2.40
2022-12-27T03:14:10.467Z,2.93
2022-12-27T03:16:55.924Z,2.30
2022-12-27T03:19:43.775Z,2.10
2022-12-27T03:22:31.032Z,2.20
2022-12-27T03:25:22.786Z,2.43
2022-12-27T03:28:07.702Z,1.90
2022-12-27T03:30:55.891Z,2.67
2022-12-27T03:33:24.920Z,2.47
2022-12-27T03:36:14.925Z,2.40
2022-12-27T03:38:53.595Z,2.40
2022-12-27T03:41:44.651Z,2.67
2022-12-27T03:44:24.994Z,2.40
2022-12-27T03:46:56.054Z,2.10
2022-12-27T03:49:30.782Z,2.50
2022-12-27T03:52:07.531Z,2.73
2022-12-27T03:54:37.600Z,2.60
2022-12-27T03:57:09.076Z,2.03
2022-12-27T03:59:36.958Z,1.80
2022-12-27T04:02:05.340Z,2.00
2022-12-27T04:04:33.211Z,1.97
2022-12-27T04:07:02.285Z,2.53
2022-12-27T04:09:47.598Z,2.10
2022-12-27T04:12:32.948Z,2.43
2022-12-27T04:15:18.530Z,2.30
2022-12-27T04:18:04.571Z,2.50
2022-12-27T04:20:49.935Z,2.60
2022-12-27T04:23:36.686Z,1.97
2022-12-27T04:26:22.064Z,1.87
2022-12-27T04:29:07.584Z,2.40
2022-12-27T04:31:53.177Z,2.30
2022-12-27T04:34:38.783Z,2.00
2022-12-27T04:37:07.055Z,2.30
2022-12-27T04:39:36.129Z,2.60
2022-12-27T04:42:21.710Z,2.20
2022-12-27T04:45:13.226Z,2.43
2022-12-27T04:48:00.875Z,2.00
2022-12-27T04:51:03.182Z,2.03
2022-12-27T04:53:49.224Z,2.50
2022-12-27T04:56:18.285Z,2.10
2022-12-27T04:58:59.978Z,1.87
2022-12-27T05:01:45.362Z,2.10
2022-12-27T05:04:13.407Z,3.07
2022-12-27T05:06:41.101Z,2.37
2022-12-27T05:09:26.583Z,2.20
2022-12-27T05:12:13.349Z,1.87
2022-12-27T05:14:41.021Z,1.70
2022-12-27T05:17:08.812Z,2.00
2022-12-27T05:19:36.521Z,2.07
2022-12-27T05:22:21.879Z,2.37
2022-12-27T05:25:07.449Z,1.80
2022-12-27T05:27:36.494Z,1.77
2022-12-27T05:30:04.828Z,2.63
2022-12-27T05:32:32.560Z,2.50
2022-12-27T05:35:00.225Z,1.97
2022-12-27T05:37:28.243Z,2.23
2022-12-27T05:39:55.930Z,2.03
2022-12-27T05:42:23.666Z,2.40
2022-12-27T05:44:52.716Z,2.13
2022-12-27T05:47:20.416Z,2.10
2022-12-27T05:49:48.138Z,2.23
2022-12-27T05:52:15.846Z,1.90
2022-12-27T05:54:43.530Z,2.03
2022-12-27T05:57:11.268Z,1.80
2022-12-27T05:59:38.985Z,2.13
2022-12-27T06:02:08.169Z,2.53
2022-12-27T06:04:36.079Z,2.40
2022-12-27T06:07:03.824Z,2.27
2022-12-27T06:09:31.489Z,2.23
2022-12-27T06:11:59.188Z,2.70
2022-12-27T06:14:26.916Z,2.20
2022-12-27T06:16:54.595Z,2.80
2022-12-27T06:19:23.629Z,2.00
2022-12-27T06:21:51.351Z,2.20
2022-12-27T06:24:19.071Z,2.07
2022-12-27T06:26:46.769Z,2.50
2022-12-27T06:29:14.464Z,2.47
2022-12-27T06:31:42.363Z,2.00
2022-12-27T06:34:12.052Z,2.43
2022-12-27T06:36:41.056Z,2.10
2022-12-27T06:39:08.818Z,2.63
2022-12-27T06:41:36.524Z,2.33
2022-12-27T06:44:04.333Z,2.50
2022-12-27T06:46:32.060Z,2.27
2022-12-27T06:48:59.812Z,2.23
2022-12-27T06:51:27.583Z,2.50
2022-12-27T06:53:56.717Z,2.60
2022-12-27T06:56:24.598Z,2.23
2022-12-27T06:58:52.513Z,2.40
2022-12-27T07:01:23.424Z,2.13
2022-12-27T07:03:52.127Z,2.83
2022-12-27T07:06:22.308Z,2.50
2022-12-27T07:08:51.218Z,2.50
2022-12-27T07:11:21.122Z,3.03
2022-12-27T07:13:50.987Z,2.83
2022-12-27T07:16:21.056Z,2.70
2022-12-27T07:18:50.143Z,2.40
2022-12-27T07:21:20.398Z,2.77
2022-12-27T07:23:48.182Z,2.77
2022-12-27T07:26:17.995Z,2.37
2022-12-27T07:28:47.598Z,2.47
2022-12-27T07:31:18.033Z,2.80
2022-12-27T07:33:46.644Z,2.50
2022-12-27T07:36:16.011Z,2.50
2022-12-27T07:38:44.149Z,2.33
2022-12-27T07:41:13.359Z,2.77
2022-12-27T07:43:43.421Z,2.50
2022-12-27T07:46:14.795Z,2.53
2022-12-27T07:48:42.879Z,2.70
2022-12-27T07:51:11.667Z,2.50
2022-12-27T07:53:39.459Z,2.40
2022-12-27T07:56:08.612Z,2.90
2022-12-27T07:58:40.213Z,2.63
2022-12-27T08:01:09.047Z,2.37
2022-12-27T08:03:39.033Z,2.93
2022-12-27T08:06:07.753Z,2.40
2022-12-27T08:08:39.221Z,2.63
2022-12-27T08:11:07.410Z,2.40
2022-12-27T08:13:35.496Z,2.30
2022-12-27T08:16:03.808Z,2.53
2022-12-27T08:18:31.743Z,2.17
2022-12-27T08:21:00.773Z,2.47
2022-12-27T08:23:28.480Z,2.63
2022-12-27T08:25:56.175Z,3.47
2022-12-27T08:28:23.896Z,2.50
2022-12-27T08:30:51.623Z,2.57
2022-12-27T08:33:20.053Z,2.90
2022-12-27T08:35:53.314Z,2.70
2022-12-27T08:38:22.989Z,2.77
2022-12-27T08:40:50.696Z,2.60
2022-12-27T08:43:18.522Z,2.73
2022-12-27T08:45:46.318Z,2.60
2022-12-27T08:48:14.556Z,2.93
2022-12-27T08:50:42.361Z,2.40
2022-12-27T08:53:11.831Z,2.97
2022-12-27T08:55:40.851Z,2.53
2022-12-27T08:58:15.769Z,2.67
2022-12-27T09:00:44.221Z,2.67
2022-12-27T09:03:12.185Z,2.63
2022-12-27T09:05:42.208Z,2.40
2022-12-27T09:08:10.356Z,2.57
2022-12-27T09:10:38.695Z,2.40
2022-12-27T09:13:07.759Z,3.57
2022-12-27T09:15:35.533Z,2.70
2022-12-27T09:18:04.062Z,2.67
2022-12-27T09:20:31.826Z,2.80
2022-12-27T09:22:59.940Z,2.70
2022-12-27T09:25:27.694Z,2.70
2022-12-27T09:27:55.962Z,2.50
2022-12-27T09:30:24.995Z,2.33
2022-12-27T09:32:52.669Z,2.50
2022-12-27T09:35:20.387Z,2.33
2022-12-27T09:37:48.081Z,2.63
2022-12-27T09:40:16.641Z,2.90
2022-12-27T09:43:06.199Z,2.90
2022-12-27T09:45:46.026Z,2.77
2022-12-27T09:48:18.316Z,2.50
2022-12-27T09:50:52.044Z,2.93
2022-12-27T09:53:25.530Z,2.40
2022-12-27T09:55:56.343Z,3.07
2022-12-27T09:58:40.090Z,2.70
2022-12-27T10:01:20.663Z,2.80
2022-12-27T10:03:49.266Z,2.97
2022-12-27T10:06:28.939Z,2.57
2022-12-27T10:09:05.430Z,2.33
2022-12-27T10:11:43.815Z,2.80
2022-12-27T10:14:31.632Z,2.63
2022-12-27T10:17:06.709Z,2.50
2022-12-27T10:19:45.573Z,2.50
2022-12-27T10:22:23.345Z,2.67
2022-12-27T10:24:56.444Z,2.60
2022-12-27T10:27:26.408Z,2.23
2022-12-27T10:29:55.642Z,2.77
2022-12-27T10:32:25.056Z,2.30
2022-12-27T10:34:57.301Z,3.40
2022-12-27T10:37:25.073Z,2.70
2022-12-27T10:39:52.850Z,2.50
2022-12-27T10:42:34.352Z,3.07
2022-12-27T10:45:33.539Z,2.53
2022-12-27T10:48:16.900Z,5.43
2022-12-27T10:50:51.756Z,2.20
2022-12-27T10:53:35.023Z,2.80
2022-12-27T10:56:14.357Z,3.93
2022-12-27T10:58:45.133Z,3.93
2022-12-27T11:01:23.530Z,4.00
2022-12-27T11:03:53.201Z,3.13
2022-12-27T11:06:24.412Z,2.27
2022-12-27T11:08:53.585Z,2.40
2022-12-27T11:11:23.501Z,2.90
2022-12-27T11:13:52.543Z,2.40
2022-12-27T11:16:28.595Z,3.17
2022-12-27T11:19:00.044Z,2.40
2022-12-27T11:21:29.507Z,3.07
2022-12-27T11:24:01.806Z,2.67
2022-12-27T11:26:34.287Z,2.70
2022-12-27T11:29:03.727Z,2.90
2022-12-27T11:31:37.444Z,4.23
2022-12-27T11:34:14.666Z,3.07
2022-12-27T11:36:46.591Z,17.93
2022-12-27T11:39:42.181Z,3.40
2022-12-27T11:42:19.332Z,2.40
2022-12-27T11:44:52.800Z,3.13
2022-12-27T11:47:33.014Z,2.90
2022-12-27T11:50:15.789Z,4.57
2022-12-27T11:53:00.800Z,3.13
2022-12-27T11:56:13.441Z,2.97
2022-12-27T11:58:58.980Z,4.00
2022-12-27T12:01:46.214Z,3.00
2022-12-27T12:04:48.484Z,2.30
2022-12-27T12:07:30.965Z,3.97
2022-12-27T12:10:17.615Z,3.13
2022-12-27T12:13:36.445Z,3.00
2022-12-27T12:16:40.779Z,2.60
2022-12-27T12:19:25.584Z,3.10
2022-12-27T12:22:05.414Z,2.80
2022-12-27T12:24:50.675Z,2.87
2022-12-27T12:27:36.335Z,2.80
2022-12-27T12:30:27.306Z,3.03
2022-12-27T12:33:15.536Z,2.70
2022-12-27T12:35:57.300Z,3.80
2022-12-27T12:38:32.923Z,2.77
2022-12-27T12:41:40.816Z,14.87
2022-12-27T12:44:44.862Z,3.17
2022-12-27T12:47:38.747Z,3.40
2022-12-27T12:50:20.758Z,2.53
2022-12-27T12:53:12.120Z,2.97
2022-12-27T12:55:51.436Z,2.97
2022-12-27T12:58:42.699Z,3.07
2022-12-27T13:01:27.437Z,3.27
2022-12-27T13:04:22.787Z,3.10
2022-12-27T13:07:07.712Z,3.27
2022-12-27T13:09:51.586Z,3.80
2022-12-27T13:12:26.099Z,2.97
2022-12-27T13:15:16.643Z,2.80
2022-12-27T13:17:55.627Z,3.50
2022-12-27T13:20:50.799Z,3.37
2022-12-27T13:23:29.656Z,3.20
2022-12-27T13:26:08.682Z,4.40
2022-12-27T13:28:47.192Z,2.90
2022-12-27T13:31:29.877Z,2.77
2022-12-27T13:34:14.612Z,3.87
2022-12-27T13:36:54.643Z,3.30
2022-12-27T13:39:36.540Z,2.70
2022-12-27T13:42:25.682Z,3.23
2022-12-27T13:45:04.815Z,3.13
2022-12-27T13:47:47.224Z,3.00
2022-12-27T13:50:46.701Z,3.30
2022-12-27T13:53:53.274Z,3.00
2022-12-27T13:56:53.378Z,2.70
2022-12-27T13:59:47.843Z,2.60
2022-12-27T14:02:44.674Z,3.60
2022-12-27T14:05:53.930Z,2.67
2022-12-27T14:08:33.742Z,3.30
2022-12-27T14:11:02.390Z,2.63
2022-12-27T14:13:35.420Z,2.83
2022-12-27T14:16:18.675Z,3.80
2022-12-27T14:19:18.405Z,3.40
2022-12-27T14:22:21.306Z,3.10
2022-12-27T14:25:17.850Z,3.47
2022-12-27T14:28:21.646Z,5.03
2022-12-27T14:31:12.512Z,4.43
2022-12-27T14:34:07.436Z,3.50
2022-12-27T14:37:08.343Z,3.67
2022-12-27T14:40:08.369Z,4.57
2022-12-27T14:43:05.463Z,3.70
2022-12-27T14:46:11.428Z,4.20
2022-12-27T14:49:16.374Z,3.40
2022-12-27T14:52:28.818Z,3.73
2022-12-27T14:55:32.054Z,4.00
2022-12-27T14:58:18.348Z,3.80
2022-12-27T15:01:01.544Z,4.00
2022-12-27T15:03:47.316Z,3.90
2022-12-27T15:06:27.379Z,3.67
2022-12-27T15:09:07.344Z,4.03
2022-12-27T15:11:56.311Z,4.10
2022-12-27T15:14:36.764Z,4.43
2022-12-27T15:17:17.189Z,3.90
2022-12-27T15:20:17.715Z,4.10
2022-12-27T15:22:57.581Z,4.07
2022-12-27T15:25:32.493Z,3.90
2022-12-27T15:28:11.401Z,4.13
2022-12-27T15:30:50.250Z,4.27
2022-12-27T15:33:29.758Z,3.77
2022-12-27T15:36:04.450Z,3.77
2022-12-27T15:38:52.870Z,3.80
2022-12-27T15:41:24.941Z,3.40
2022-12-27T15:44:15.406Z,3.10
2022-12-27T15:47:04.906Z,3.50
2022-12-27T15:49:58.967Z,4.00
2022-12-27T15:52:37.114Z,3.40
2022-12-27T15:55:21.614Z,3.20
2022-12-27T15:58:12.972Z,3.10
2022-12-27T16:00:43.475Z,2.90
2022-12-27T16:03:35.968Z,3.17
2022-12-27T16:06:07.573Z,3.03
2022-12-27T16:08:38.781Z,3.00
2022-12-27T16:11:09.708Z,2.90
2022-12-27T16:13:46.740Z,2.87
2022-12-27T16:16:57.439Z,3.93
2022-12-27T16:19:52.855Z,2.93
2022-12-27T16:22:32.391Z,3.17
2022-12-27T16:25:13.257Z,3.50
2022-12-27T16:27:41.343Z,3.27
2022-12-27T16:30:11.646Z,3.43
2022-12-27T16:32:49.547Z,3.13
2022-12-27T16:35:18.913Z,3.17
2022-12-27T16:37:54.831Z,3.63
2022-12-27T16:40:39.400Z,3.07
2022-12-27T16:43:33.091Z,3.13
2022-12-27T16:46:17.709Z,3.20
2022-12-27T16:49:07.819Z,3.43
2022-12-27T16:51:51.882Z,3.57
2022-12-27T16:54:32.466Z,4.07
2022-12-27T16:57:33.565Z,3.30
2022-12-27T17:00:04.354Z,3.40
2022-12-27T17:02:40.963Z,3.30
2022-12-27T17:05:32.897Z,3.20
2022-12-27T17:08:20.148Z,3.77
2022-12-27T17:11:03.715Z,4.17
2022-12-27T17:13:41.044Z,3.50
2022-12-27T17:16:19.820Z,3.87
2022-12-27T17:18:51.784Z,4.70
2022-12-27T17:21:29.904Z,3.60
2022-12-27T17:24:02.668Z,4.07
2022-12-27T17:27:07.463Z,4.13
2022-12-27T17:29:53.499Z,3.80
2022-12-27T17:32:34.654Z,3.83
2022-12-27T17:35:11.432Z,3.93
2022-12-27T17:37:47.244Z,4.33
2022-12-27T17:40:27.359Z,3.90
2022-12-27T17:43:22.286Z,4.30
2022-12-27T17:45:58.491Z,4.20
2022-12-27T17:48:29.058Z,4.27
2022-12-27T17:51:01.956Z,4.43
2022-12-27T17:53:47.480Z,4.43
2022-12-27T17:56:38.326Z,4.63
2022-12-27T17:59:10.184Z,4.33
2022-12-27T18:01:44.633Z,5.00
2022-12-27T18:04:21.867Z,5.00
2022-12-27T18:06:50.190Z,6.17
2022-12-27T18:09:32.562Z,6.10
2022-12-27T18:12:02.098Z,5.70
2022-12-27T18:14:33.678Z,5.47
2022-12-27T18:17:01.617Z,5.90
2022-12-27T18:19:31.625Z,8.50
2022-12-27T18:22:01.561Z,5.50
2022-12-27T18:24:31.533Z,6.07
2022-12-27T18:27:06.126Z,5.67
2022-12-27T18:29:33.970Z,5.63
2022-12-27T18:32:05.495Z,6.10
2022-12-27T18:34:39.180Z,5.60
2022-12-27T18:37:10.281Z,5.53
2022-12-27T18:39:41.521Z,5.90
2022-12-27T18:42:18.782Z,6.30
2022-12-27T18:44:49.958Z,5.73
2022-12-27T18:47:21.321Z,6.03
2022-12-27T18:49:54.725Z,5.93
2022-12-27T18:52:26.605Z,6.10
2022-12-27T18:54:55.425Z,6.37
2022-12-27T18:57:33.237Z,5.97
2022-12-27T19:00:03.174Z,6.20
2022-12-27T19:02:34.861Z,6.17
2022-12-27T19:05:30.284Z,6.10
2022-12-27T19:08:03.043Z,5.50
2022-12-27T19:10:33.510Z,6.13
2022-12-27T19:13:03.664Z,5.80
2022-12-27T19:15:38.997Z,6.20
2022-12-27T19:18:20.565Z,7.27
2022-12-27T19:20:55.175Z,8.73
2022-12-27T19:23:28.899Z,6.90
2022-12-27T19:26:04.497Z,6.10
2022-12-27T19:28:34.711Z,6.03
2022-12-27T19:31:18.092Z,5.50
2022-12-27T19:33:51.185Z,5.97
2022-12-27T19:36:23.498Z,5.60
2022-12-27T19:38:51.265Z,5.60
2022-12-27T19:41:19.021Z,5.53
2022-12-27T19:43:48.661Z,6.50
2022-12-27T19:46:19.109Z,6.83
2022-12-27T19:49:01.048Z,6.00
2022-12-27T19:51:37.161Z,6.80
2022-12-27T19:54:08.368Z,6.03
2022-12-27T19:56:36.125Z,5.83
2022-12-27T19:59:05.268Z,6.60
2022-12-27T20:01:33.273Z,6.90
2022-12-27T20:04:01.165Z,7.13
2022-12-27T20:06:29.777Z,7.03
2022-12-27T20:08:58.085Z,6.57
2022-12-27T20:11:27.691Z,6.73
2022-12-27T20:13:55.456Z,6.53
2022-12-27T20:16:24.731Z,6.50
2022-12-27T20:18:52.591Z,6.80
2022-12-27T20:21:21.296Z,6.77
2022-12-27T20:23:49.593Z,6.87
2022-12-27T20:26:20.761Z,6.30
2022-12-27T20:28:49.178Z,7.00
2022-12-27T20:31:19.506Z,6.40
2022-12-27T20:33:52.145Z,6.50
2022-12-27T20:36:19.922Z,6.73
2022-12-27T20:38:47.723Z,6.50
2022-12-27T20:41:17.373Z,6.63
2022-12-27T20:43:45.817Z,6.53
2022-12-27T20:46:15.471Z,6.20
2022-12-27T20:48:45.269Z,6.00
2022-12-27T20:51:16.321Z,5.90
2022-12-27T20:53:44.233Z,12.90
2022-12-27T20:56:13.036Z,8.33
2022-12-27T20:58:40.792Z,5.83
2022-12-27T21:01:10.166Z,5.77
2022-12-27T21:03:38.319Z,5.00
2022-12-27T21:06:08.027Z,5.60
2022-12-27T21:08:45.469Z,6.03
2022-12-27T21:11:16.616Z,5.27
2022-12-27T21:13:45.490Z,5.53
2022-12-27T21:16:14.950Z,5.00
2022-12-27T21:18:42.915Z,4.70
2022-12-27T21:21:14.423Z,4.87
2022-12-27T21:23:44.260Z,5.00
2022-12-27T21:26:14.249Z,4.80
2022-12-27T21:28:42.500Z,5.27
2022-12-27T21:31:11.013Z,5.40
2022-12-27T21:33:39.171Z,5.00
2022-12-27T21:36:09.178Z,4.70
2022-12-27T21:38:37.114Z,4.93
2022-12-27T21:41:08.689Z,4.80
2022-12-27T21:43:36.480Z,4.60
2022-12-27T21:46:07.548Z,4.73
2022-12-27T21:48:36.051Z,4.43
2022-12-27T21:51:07.403Z,4.83
2022-12-27T21:53:35.130Z,4.70
2022-12-27T21:56:03.615Z,4.23
2022-12-27T21:58:33.838Z,4.50
2022-12-27T22:01:08.616Z,4.63
2022-12-27T22:03:38.942Z,4.03
2022-12-27T22:06:11.399Z,4.07
2022-12-27T22:08:39.299Z,4.00
2022-12-27T22:11:07.335Z,3.93
2022-12-27T22:13:37.315Z,4.00
2022-12-27T22:16:08.290Z,3.83
2022-12-27T22:18:38.439Z,3.53
2022-12-27T22:21:07.720Z,4.00
2022-12-27T22:23:37.206Z,3.70
2022-12-27T22:26:06.041Z,3.53
2022-12-27T22:28:33.749Z,3.30
2022-12-27T22:31:06.151Z,3.17
2022-12-27T22:33:34.003Z,4.17
2022-12-27T22:36:04.558Z,3.40
2022-12-27T22:38:32.616Z,3.70
2022-12-27T22:41:08.119Z,3.20
2022-12-27T22:43:35.955Z,3.00
2022-12-27T22:46:08.496Z,3.40
2022-12-27T22:48:36.481Z,3.20
2022-12-27T22:51:08.842Z,3.20
2022-12-27T22:53:37.001Z,3.30
2022-12-27T22:56:04.859Z,3.43
2022-12-27T22:58:32.723Z,2.63
2022-12-27T23:01:00.579Z,2.80
2022-12-27T23:03:29.649Z,2.97
2022-12-27T23:05:58.802Z,2.80
2022-12-27T23:08:27.080Z,2.77
2022-12-27T23:10:55.200Z,2.67
2022-12-27T23:13:24.874Z,2.77
2022-12-27T23:15:58.271Z,2.90
2022-12-27T23:18:26.472Z,3.13
2022-12-27T23:21:20.324Z,2.53
2022-12-27T23:23:44.217Z,3.30
2022-12-27T23:26:15.951Z,2.73
2022-12-27T23:28:45.267Z,2.93
2022-12-27T23:31:14.044Z,2.97
2022-12-27T23:33:43.446Z,3.43
2022-12-27T23:36:13.432Z,3.03
2022-12-27T23:38:41.437Z,3.17
2022-12-27T23:41:12.097Z,3.00
2022-12-27T23:43:56.487Z,2.80
2022-12-27T23:46:27.380Z,2.53
2022-12-27T23:48:56.555Z,2.77
2022-12-27T23:51:25.918Z,6.10
2022-12-27T23:53:53.792Z,2.70
2022-12-27T23:56:23.712Z,3.00
2022-12-27T23:58:53.988Z,3.00
